sensor_id;sensor_type;location;lat;lon;timestamp;temperature;humidity
40023;DHT22;25713;-35.352;149.036;2022-11-24T00:00:11;14.80;93.50
40023;DHT22;25713;-35.352;149.036;2022-11-24T00:02:41;14.80;94.00
40023;DHT22;25713;-35.352;149.036;2022-11-24T00:05:10;14.90;94.00
40023;DHT22;25713;-35.352;149.036;2022-11-24T00:07:39;14.90;94.00
40023;DHT22;25713;-35.352;149.036;2022-11-24T00:10:09;14.90;94.00
40023;DHT22;25713;-35.352;149.036;2022-11-24T00:12:40;15.00;94.40
40023;DHT22;25713;-35.352;149.036;2022-11-24T00:15:10;15.00;93.90
40023;DHT22;25713;-35.352;149.036;2022-11-24T00:17:40;15.00;93.60
40023;DHT22;25713;-35.352;149.036;2022-11-24T00:20:10;15.00;94.10
40023;DHT22;25713;-35.352;149.036;2022-11-24T00:22:39;15.00;93.90
40023;DHT22;25713;-35.352;149.036;2022-11-24T00:25:09;15.00;94.30
40023;DHT22;25713;-35.352;149.036;2022-11-24T00:27:40;15.10;94.30
40023;DHT22;25713;-35.352;149.036;2022-11-24T00:30:10;15.10;94.20
40023;DHT22;25713;-35.352;149.036;2022-11-24T00:32:40;15.10;94.20
40023;DHT22;25713;-35.352;149.036;2022-11-24T00:35:10;15.20;94.40
40023;DHT22;25713;-35.352;149.036;2022-11-24T00:37:39;15.20;94.00
40023;DHT22;25713;-35.352;149.036;2022-11-24T00:40:09;15.20;93.60
40023;DHT22;25713;-35.352;149.036;2022-11-24T00:42:41;15.20;94.60
40023;DHT22;25713;-35.352;149.036;2022-11-24T00:45:10;15.30;93.80
40023;DHT22;25713;-35.352;149.036;2022-11-24T00:47:40;15.30;94.50
40023;DHT22;25713;-35.352;149.036;2022-11-24T00:50:09;15.30;95.00
40023;DHT22;25713;-35.352;149.036;2022-11-24T00:52:39;15.60;94.30
40023;DHT22;25713;-35.352;149.036;2022-11-24T00:55:08;15.60;93.70
40023;DHT22;25713;-35.352;149.036;2022-11-24T00:57:40;15.60;94.30
40023;DHT22;25713;-35.352;149.036;2022-11-24T01:00:10;15.60;94.10
40023;DHT22;25713;-35.352;149.036;2022-11-24T01:02:40;15.60;93.90
40023;DHT22;25713;-35.352;149.036;2022-11-24T01:05:09;15.60;93.50
40023;DHT22;25713;-35.352;149.036;2022-11-24T01:07:39;15.60;94.30
40023;DHT22;25713;-35.352;149.036;2022-11-24T01:10:09;15.60;94.50
40023;DHT22;25713;-35.352;149.036;2022-11-24T01:12:40;15.60;94.20
40023;DHT22;25713;-35.352;149.036;2022-11-24T01:15:10;15.70;94.20
40023;DHT22;25713;-35.352;149.036;2022-11-24T01:17:42;15.80;94.30
40023;DHT22;25713;-35.352;149.036;2022-11-24T01:20:12;15.80;94.00
40023;DHT22;25713;-35.352;149.036;2022-11-24T01:22:41;15.70;94.80
40023;DHT22;25713;-35.352;149.036;2022-11-24T01:25:11;15.70;95.00
40023;DHT22;25713;-35.352;149.036;2022-11-24T01:27:42;15.80;95.00
40023;DHT22;25713;-35.352;149.036;2022-11-24T01:30:13;15.90;94.10
40023;DHT22;25713;-35.352;149.036;2022-11-24T01:32:42;15.80;94.60
40023;DHT22;25713;-35.352;149.036;2022-11-24T01:35:12;15.90;95.50
40023;DHT22;25713;-35.352;149.036;2022-11-24T01:37:41;15.90;95.50
40023;DHT22;25713;-35.352;149.036;2022-11-24T01:40:12;15.90;95.20
40023;DHT22;25713;-35.352;149.036;2022-11-24T01:42:48;15.90;95.00
40023;DHT22;25713;-35.352;149.036;2022-11-24T01:45:35;16.00;95.40
40023;DHT22;25713;-35.352;149.036;2022-11-24T01:48:06;16.10;95.00
40023;DHT22;25713;-35.352;149.036;2022-11-24T01:50:40;16.00;94.80
40023;DHT22;25713;-35.352;149.036;2022-11-24T01:53:10;16.10;94.50
40023;DHT22;25713;-35.352;149.036;2022-11-24T01:55:40;16.10;95.00
40023;DHT22;25713;-35.352;149.036;2022-11-24T01:58:14;16.20;94.60
40023;DHT22;25713;-35.352;149.036;2022-11-24T02:00:46;16.20;94.40
40023;DHT22;25713;-35.352;149.036;2022-11-24T02:03:16;16.20;94.00
40023;DHT22;25713;-35.352;149.036;2022-11-24T02:05:49;16.20;94.50
40023;DHT22;25713;-35.352;149.036;2022-11-24T02:08:24;16.30;94.50
40023;DHT22;25713;-35.352;149.036;2022-11-24T02:10:55;16.30;94.10
40023;DHT22;25713;-35.352;149.036;2022-11-24T02:13:27;16.30;94.10
40023;DHT22;25713;-35.352;149.036;2022-11-24T02:15:57;16.50;94.40
40023;DHT22;25713;-35.352;149.036;2022-11-24T02:18:26;16.50;94.30
40023;DHT22;25713;-35.352;149.036;2022-11-24T02:20:56;16.50;93.70
40023;DHT22;25713;-35.352;149.036;2022-11-24T02:23:32;16.50;94.70
40023;DHT22;25713;-35.352;149.036;2022-11-24T02:26:08;16.50;94.50
40023;DHT22;25713;-35.352;149.036;2022-11-24T02:28:42;16.60;93.80
40023;DHT22;25713;-35.352;149.036;2022-11-24T02:31:12;16.70;93.50
40023;DHT22;25713;-35.352;149.036;2022-11-24T02:33:42;16.60;94.10
40023;DHT22;25713;-35.352;149.036;2022-11-24T02:36:11;16.60;94.00
40023;DHT22;25713;-35.352;149.036;2022-11-24T02:38:41;16.80;94.10
40023;DHT22;25713;-35.352;149.036;2022-11-24T02:41:12;16.80;93.40
40023;DHT22;25713;-35.352;149.036;2022-11-24T02:43:47;16.80;93.80
40023;DHT22;25713;-35.352;149.036;2022-11-24T02:46:17;16.90;93.30
40023;DHT22;25713;-35.352;149.036;2022-11-24T02:48:46;17.00;93.30
40023;DHT22;25713;-35.352;149.036;2022-11-24T02:51:16;16.90;93.50
40023;DHT22;25713;-35.352;149.036;2022-11-24T02:53:46;16.80;93.60
40023;DHT22;25713;-35.352;149.036;2022-11-24T02:56:15;16.80;93.50
40023;DHT22;25713;-35.352;149.036;2022-11-24T02:58:47;16.80;93.30
40023;DHT22;25713;-35.352;149.036;2022-11-24T03:01:16;16.80;93.80
40023;DHT22;25713;-35.352;149.036;2022-11-24T03:03:46;17.00;93.40
40023;DHT22;25713;-35.352;149.036;2022-11-24T03:06:15;17.10;92.70
40023;DHT22;25713;-35.352;149.036;2022-11-24T03:08:45;17.20;92.50
40023;DHT22;25713;-35.352;149.036;2022-11-24T03:11:14;17.20;92.40
40023;DHT22;25713;-35.352;149.036;2022-11-24T03:13:46;17.30;91.70
40023;DHT22;25713;-35.352;149.036;2022-11-24T03:16:16;17.20;92.90
40023;DHT22;25713;-35.352;149.036;2022-11-24T03:18:45;17.20;92.70
40023;DHT22;25713;-35.352;149.036;2022-11-24T03:21:15;17.10;93.60
40023;DHT22;25713;-35.352;149.036;2022-11-24T03:23:44;17.10;93.20
40023;DHT22;25713;-35.352;149.036;2022-11-24T03:26:15;17.00;93.60
40023;DHT22;25713;-35.352;149.036;2022-11-24T03:28:47;17.10;93.10
40023;DHT22;25713;-35.352;149.036;2022-11-24T03:31:17;17.30;92.50
40023;DHT22;25713;-35.352;149.036;2022-11-24T03:33:47;17.40;91.90
40023;DHT22;25713;-35.352;149.036;2022-11-24T03:36:16;17.50;91.20
40023;DHT22;25713;-35.352;149.036;2022-11-24T03:38:46;17.40;91.00
40023;DHT22;25713;-35.352;149.036;2022-11-24T03:41:15;17.30;91.80
40023;DHT22;25713;-35.352;149.036;2022-11-24T03:43:47;17.20;92.10
40023;DHT22;25713;-35.352;149.036;2022-11-24T03:46:16;17.20;91.10
40023;DHT22;25713;-35.352;149.036;2022-11-24T03:48:46;17.20;90.90
40023;DHT22;25713;-35.352;149.036;2022-11-24T03:51:15;17.30;91.40
40023;DHT22;25713;-35.352;149.036;2022-11-24T03:53:45;17.10;92.30
40023;DHT22;25713;-35.352;149.036;2022-11-24T03:56:14;17.10;92.30
40023;DHT22;25713;-35.352;149.036;2022-11-24T03:58:44;17.10;92.00
40023;DHT22;25713;-35.352;149.036;2022-11-24T04:01:15;17.00;91.80
40023;DHT22;25713;-35.352;149.036;2022-11-24T04:03:45;17.10;91.20
40023;DHT22;25713;-35.352;149.036;2022-11-24T04:06:14;17.10;92.30
40023;DHT22;25713;-35.352;149.036;2022-11-24T04:08:43;17.00;91.80
40023;DHT22;25713;-35.352;149.036;2022-11-24T04:11:13;17.10;90.60
40023;DHT22;25713;-35.352;149.036;2022-11-24T04:13:42;17.10;91.20
40023;DHT22;25713;-35.352;149.036;2022-11-24T04:16:17;17.00;92.20
40023;DHT22;25713;-35.352;149.036;2022-11-24T04:18:47;17.00;92.00
40023;DHT22;25713;-35.352;149.036;2022-11-24T04:21:16;17.10;91.40
40023;DHT22;25713;-35.352;149.036;2022-11-24T04:23:46;17.10;91.90
40023;DHT22;25713;-35.352;149.036;2022-11-24T04:26:15;17.10;92.20
40023;DHT22;25713;-35.352;149.036;2022-11-24T04:28:45;17.10;91.60
40023;DHT22;25713;-35.352;149.036;2022-11-24T04:31:16;17.30;91.00
40023;DHT22;25713;-35.352;149.036;2022-11-24T04:33:46;17.30;91.20
40023;DHT22;25713;-35.352;149.036;2022-11-24T04:36:15;17.30;91.30
40023;DHT22;25713;-35.352;149.036;2022-11-24T04:38:45;17.30;91.30
40023;DHT22;25713;-35.352;149.036;2022-11-24T04:41:14;17.30;91.00
40023;DHT22;25713;-35.352;149.036;2022-11-24T04:43:44;17.30;91.00
40023;DHT22;25713;-35.352;149.036;2022-11-24T04:46:13;17.30;91.50
40023;DHT22;25713;-35.352;149.036;2022-11-24T04:48:45;17.40;91.20
40023;DHT22;25713;-35.352;149.036;2022-11-24T04:51:14;17.60;90.10
40023;DHT22;25713;-35.352;149.036;2022-11-24T04:53:44;17.70;90.80
40023;DHT22;25713;-35.352;149.036;2022-11-24T04:56:13;17.70;90.70
40023;DHT22;25713;-35.352;149.036;2022-11-24T04:58:42;17.90;90.20
40023;DHT22;25713;-35.352;149.036;2022-11-24T05:01:12;17.90;90.40
40023;DHT22;25713;-35.352;149.036;2022-11-24T05:03:44;17.90;90.00
40023;DHT22;25713;-35.352;149.036;2022-11-24T05:06:14;17.90;89.90
40023;DHT22;25713;-35.352;149.036;2022-11-24T05:08:46;17.90;90.20
40023;DHT22;25713;-35.352;149.036;2022-11-24T05:11:14;17.80;90.50
40023;DHT22;25713;-35.352;149.036;2022-11-24T05:13:44;17.80;90.90
40023;DHT22;25713;-35.352;149.036;2022-11-24T05:16:13;17.90;90.00
40023;DHT22;25713;-35.352;149.036;2022-11-24T05:18:45;17.90;90.00
40023;DHT22;25713;-35.352;149.036;2022-11-24T05:21:14;18.10;88.60
40023;DHT22;25713;-35.352;149.036;2022-11-24T05:23:44;18.20;89.40
40023;DHT22;25713;-35.352;149.036;2022-11-24T05:26:13;18.10;89.10
40023;DHT22;25713;-35.352;149.036;2022-11-24T05:28:43;18.20;89.50
40023;DHT22;25713;-35.352;149.036;2022-11-24T05:31:12;18.10;89.00
40023;DHT22;25713;-35.352;149.036;2022-11-24T05:33:42;18.10;87.50
40023;DHT22;25713;-35.352;149.036;2022-11-24T05:36:14;18.10;88.70
40023;DHT22;25713;-35.352;149.036;2022-11-24T05:38:43;18.20;87.20
40023;DHT22;25713;-35.352;149.036;2022-11-24T05:41:12;18.30;87.70
40023;DHT22;25713;-35.352;149.036;2022-11-24T05:43:42;18.20;88.10
40023;DHT22;25713;-35.352;149.036;2022-11-24T05:46:12;18.10;87.80
40023;DHT22;25713;-35.352;149.036;2022-11-24T05:48:41;18.30;87.90
40023;DHT22;25713;-35.352;149.036;2022-11-24T05:51:12;18.30;87.00
40023;DHT22;25713;-35.352;149.036;2022-11-24T05:53:42;18.20;87.30
40023;DHT22;25713;-35.352;149.036;2022-11-24T05:56:11;18.10;87.60
40023;DHT22;25713;-35.352;149.036;2022-11-24T05:58:41;18.10;86.70
40023;DHT22;25713;-35.352;149.036;2022-11-24T06:01:11;18.00;88.50
40023;DHT22;25713;-35.352;149.036;2022-11-24T06:03:40;18.10;87.20
40023;DHT22;25713;-35.352;149.036;2022-11-24T06:06:12;18.20;87.40
40023;DHT22;25713;-35.352;149.036;2022-11-24T06:08:42;18.20;87.50
40023;DHT22;25713;-35.352;149.036;2022-11-24T06:11:11;18.30;85.90
40023;DHT22;25713;-35.352;149.036;2022-11-24T06:13:42;18.50;84.40
40023;DHT22;25713;-35.352;149.036;2022-11-24T06:16:12;18.20;87.50
40023;DHT22;25713;-35.352;149.036;2022-11-24T06:18:41;18.30;86.30
40023;DHT22;25713;-35.352;149.036;2022-11-24T06:21:12;18.20;87.40
40023;DHT22;25713;-35.352;149.036;2022-11-24T06:23:42;18.10;87.90
40023;DHT22;25713;-35.352;149.036;2022-11-24T06:26:11;18.10;86.90
40023;DHT22;25713;-35.352;149.036;2022-11-24T06:28:41;18.00;87.50
40023;DHT22;25713;-35.352;149.036;2022-11-24T06:31:11;17.90;88.00
40023;DHT22;25713;-35.352;149.036;2022-11-24T06:33:40;17.90;87.20
40023;DHT22;25713;-35.352;149.036;2022-11-24T06:36:14;17.90;88.30
40023;DHT22;25713;-35.352;149.036;2022-11-24T06:38:44;18.10;86.20
40023;DHT22;25713;-35.352;149.036;2022-11-24T06:41:13;18.20;88.00
40023;DHT22;25713;-35.352;149.036;2022-11-24T06:43:44;18.30;87.00
40023;DHT22;25713;-35.352;149.036;2022-11-24T06:46:14;18.20;85.50
40023;DHT22;25713;-35.352;149.036;2022-11-24T06:48:43;18.30;85.80
40023;DHT22;25713;-35.352;149.036;2022-11-24T06:51:15;18.30;85.20
40023;DHT22;25713;-35.352;149.036;2022-11-24T06:53:44;18.20;85.70
40023;DHT22;25713;-35.352;149.036;2022-11-24T06:56:16;18.30;85.80
40023;DHT22;25713;-35.352;149.036;2022-11-24T06:58:47;18.20;84.20
40023;DHT22;25713;-35.352;149.036;2022-11-24T07:01:18;18.00;85.90
40023;DHT22;25713;-35.352;149.036;2022-11-24T07:03:47;18.10;86.10
40023;DHT22;25713;-35.352;149.036;2022-11-24T07:06:20;18.00;85.60
40023;DHT22;25713;-35.352;149.036;2022-11-24T07:08:50;18.00;85.50
40023;DHT22;25713;-35.352;149.036;2022-11-24T07:11:21;18.10;86.80
40023;DHT22;25713;-35.352;149.036;2022-11-24T07:13:50;18.00;87.60
40023;DHT22;25713;-35.352;149.036;2022-11-24T07:16:21;18.00;86.50
40023;DHT22;25713;-35.352;149.036;2022-11-24T07:18:51;18.00;86.00
40023;DHT22;25713;-35.352;149.036;2022-11-24T07:21:26;17.90;86.90
40023;DHT22;25713;-35.352;149.036;2022-11-24T07:23:56;17.90;86.40
40023;DHT22;25713;-35.352;149.036;2022-11-24T07:26:26;18.00;84.50
40023;DHT22;25713;-35.352;149.036;2022-11-24T07:28:55;18.00;85.90
40023;DHT22;25713;-35.352;149.036;2022-11-24T07:31:25;17.90;85.70
40023;DHT22;25713;-35.352;149.036;2022-11-24T07:33:55;17.90;85.70
40023;DHT22;25713;-35.352;149.036;2022-11-24T07:36:26;17.90;86.10
40023;DHT22;25713;-35.352;149.036;2022-11-24T07:38:56;17.80;84.70
40023;DHT22;25713;-35.352;149.036;2022-11-24T07:41:25;17.80;86.00
40023;DHT22;25713;-35.352;149.036;2022-11-24T07:43:55;17.80;86.30
40023;DHT22;25713;-35.352;149.036;2022-11-24T07:46:25;17.90;86.40
40023;DHT22;25713;-35.352;149.036;2022-11-24T07:48:54;17.80;86.90
40023;DHT22;25713;-35.352;149.036;2022-11-24T07:51:25;17.80;86.50
40023;DHT22;25713;-35.352;149.036;2022-11-24T07:53:55;17.80;85.80
40023;DHT22;25713;-35.352;149.036;2022-11-24T07:56:25;17.70;86.40
40023;DHT22;25713;-35.352;149.036;2022-11-24T07:58:54;17.70;86.40
40023;DHT22;25713;-35.352;149.036;2022-11-24T08:01:23;17.70;86.90
40023;DHT22;25713;-35.352;149.036;2022-11-24T08:03:53;17.70;86.60
40023;DHT22;25713;-35.352;149.036;2022-11-24T08:06:22;17.60;87.20
40023;DHT22;25713;-35.352;149.036;2022-11-24T08:08:54;17.50;87.80
40023;DHT22;25713;-35.352;149.036;2022-11-24T08:11:24;17.50;86.90
40023;DHT22;25713;-35.352;149.036;2022-11-24T08:13:54;17.50;87.90
40023;DHT22;25713;-35.352;149.036;2022-11-24T08:16:23;17.50;86.90
40023;DHT22;25713;-35.352;149.036;2022-11-24T08:18:54;17.50;87.40
40023;DHT22;25713;-35.352;149.036;2022-11-24T08:21:24;17.40;87.70
40023;DHT22;25713;-35.352;149.036;2022-11-24T08:23:58;17.40;87.20
40023;DHT22;25713;-35.352;149.036;2022-11-24T08:26:28;17.50;86.90
40023;DHT22;25713;-35.352;149.036;2022-11-24T08:28:58;17.50;88.00
40023;DHT22;25713;-35.352;149.036;2022-11-24T08:31:28;17.40;88.40
40023;DHT22;25713;-35.352;149.036;2022-11-24T08:33:57;17.30;88.50
40023;DHT22;25713;-35.352;149.036;2022-11-24T08:36:27;17.30;89.20
40023;DHT22;25713;-35.352;149.036;2022-11-24T08:38:59;17.20;89.00
40023;DHT22;25713;-35.352;149.036;2022-11-24T08:41:29;17.30;89.50
40023;DHT22;25713;-35.352;149.036;2022-11-24T08:43:59;17.20;89.40
40023;DHT22;25713;-35.352;149.036;2022-11-24T08:46:28;17.20;88.30
40023;DHT22;25713;-35.352;149.036;2022-11-24T08:48:58;17.20;88.70
40023;DHT22;25713;-35.352;149.036;2022-11-24T08:51:27;17.10;89.30
40023;DHT22;25713;-35.352;149.036;2022-11-24T08:53:59;17.10;89.40
40023;DHT22;25713;-35.352;149.036;2022-11-24T08:56:28;17.00;89.30
40023;DHT22;25713;-35.352;149.036;2022-11-24T08:58:58;17.00;89.40
40023;DHT22;25713;-35.352;149.036;2022-11-24T09:01:28;17.00;89.40
40023;DHT22;25713;-35.352;149.036;2022-11-24T09:03:57;16.90;89.20
40023;DHT22;25713;-35.352;149.036;2022-11-24T09:06:28;16.90;90.20
40023;DHT22;25713;-35.352;149.036;2022-11-24T09:09:00;16.90;90.20
40023;DHT22;25713;-35.352;149.036;2022-11-24T09:11:29;16.90;90.20
40023;DHT22;25713;-35.352;149.036;2022-11-24T09:14:01;16.90;90.30
40023;DHT22;25713;-35.352;149.036;2022-11-24T09:16:30;16.90;90.80
40023;DHT22;25713;-35.352;149.036;2022-11-24T09:19:01;16.90;91.10
40023;DHT22;25713;-35.352;149.036;2022-11-24T09:21:33;16.90;90.90
40023;DHT22;25713;-35.352;149.036;2022-11-24T09:24:05;16.80;91.10
40023;DHT22;25713;-35.352;149.036;2022-11-24T09:26:34;16.80;91.00
40023;DHT22;25713;-35.352;149.036;2022-11-24T09:29:04;16.80;90.90
40023;DHT22;25713;-35.352;149.036;2022-11-24T09:31:35;16.70;91.40
40023;DHT22;25713;-35.352;149.036;2022-11-24T09:34:05;16.70;90.80
40023;DHT22;25713;-35.352;149.036;2022-11-24T09:36:35;16.70;91.00
40023;DHT22;25713;-35.352;149.036;2022-11-24T09:39:08;16.60;90.80
40023;DHT22;25713;-35.352;149.036;2022-11-24T09:41:47;16.60;90.60
40023;DHT22;25713;-35.352;149.036;2022-11-24T09:44:36;16.60;90.70
40023;DHT22;25713;-35.352;149.036;2022-11-24T09:47:13;16.60;90.20
40023;DHT22;25713;-35.352;149.036;2022-11-24T09:49:48;16.60;90.30
40023;DHT22;25713;-35.352;149.036;2022-11-24T09:52:22;16.50;90.20
40023;DHT22;25713;-35.352;149.036;2022-11-24T09:54:58;16.60;90.50
40023;DHT22;25713;-35.352;149.036;2022-11-24T09:57:31;16.60;90.30
40023;DHT22;25713;-35.352;149.036;2022-11-24T10:00:09;16.50;90.50
40023;DHT22;25713;-35.352;149.036;2022-11-24T10:02:47;16.60;90.20
40023;DHT22;25713;-35.352;149.036;2022-11-24T10:05:18;16.50;90.50
40023;DHT22;25713;-35.352;149.036;2022-11-24T10:07:57;16.50;90.10
40023;DHT22;25713;-35.352;149.036;2022-11-24T10:10:34;16.50;90.30
40023;DHT22;25713;-35.352;149.036;2022-11-24T10:13:12;16.50;90.20
40023;DHT22;25713;-35.352;149.036;2022-11-24T10:15:47;16.50;90.20
40023;DHT22;25713;-35.352;149.036;2022-11-24T10:18:36;16.50;90.40
40023;DHT22;25713;-35.352;149.036;2022-11-24T10:21:30;16.50;90.60
40023;DHT22;25713;-35.352;149.036;2022-11-24T10:24:19;16.40;90.70
40023;DHT22;25713;-35.352;149.036;2022-11-24T10:27:00;16.50;90.50
40023;DHT22;25713;-35.352;149.036;2022-11-24T10:29:33;16.40;90.50
40023;DHT22;25713;-35.352;149.036;2022-11-24T10:32:12;16.40;90.50
40023;DHT22;25713;-35.352;149.036;2022-11-24T10:34:45;16.40;90.50
40023;DHT22;25713;-35.352;149.036;2022-11-24T10:37:18;16.40;91.00
40023;DHT22;25713;-35.352;149.036;2022-11-24T10:39:57;16.40;90.90
40023;DHT22;25713;-35.352;149.036;2022-11-24T10:42:31;16.40;90.90
40023;DHT22;25713;-35.352;149.036;2022-11-24T10:45:01;16.40;91.50
40023;DHT22;25713;-35.352;149.036;2022-11-24T10:47:31;16.30;91.30
40023;DHT22;25713;-35.352;149.036;2022-11-24T10:50:03;16.20;90.90
40023;DHT22;25713;-35.352;149.036;2022-11-24T10:52:39;16.20;91.00
40023;DHT22;25713;-35.352;149.036;2022-11-24T10:55:10;16.20;91.40
40023;DHT22;25713;-35.352;149.036;2022-11-24T10:57:41;16.30;91.20
40023;DHT22;25713;-35.352;149.036;2022-11-24T11:00:35;16.20;91.40
40023;DHT22;25713;-35.352;149.036;2022-11-24T11:03:16;16.20;91.10
40023;DHT22;25713;-35.352;149.036;2022-11-24T11:05:50;16.10;91.40
40023;DHT22;25713;-35.352;149.036;2022-11-24T11:08:27;16.20;91.10
40023;DHT22;25713;-35.352;149.036;2022-11-24T11:11:19;16.10;91.20
40023;DHT22;25713;-35.352;149.036;2022-11-24T11:13:55;16.10;91.50
40023;DHT22;25713;-35.352;149.036;2022-11-24T11:16:33;16.10;91.50
40023;DHT22;25713;-35.352;149.036;2022-11-24T11:19:04;16.10;91.10
40023;DHT22;25713;-35.352;149.036;2022-11-24T11:21:35;16.20;92.10
40023;DHT22;25713;-35.352;149.036;2022-11-24T11:24:11;16.20;91.90
40023;DHT22;25713;-35.352;149.036;2022-11-24T11:26:43;16.10;92.00
40023;DHT22;25713;-35.352;149.036;2022-11-24T11:29:22;16.20;92.70
40023;DHT22;25713;-35.352;149.036;2022-11-24T11:32:01;16.20;93.10
40023;DHT22;25713;-35.352;149.036;2022-11-24T11:34:34;16.10;93.10
40023;DHT22;25713;-35.352;149.036;2022-11-24T11:37:04;16.10;92.90
40023;DHT22;25713;-35.352;149.036;2022-11-24T11:39:35;16.10;93.00
40023;DHT22;25713;-35.352;149.036;2022-11-24T11:42:16;16.10;93.30
40023;DHT22;25713;-35.352;149.036;2022-11-24T11:44:51;16.10;92.10
40023;DHT22;25713;-35.352;149.036;2022-11-24T11:47:26;16.00;92.50
40023;DHT22;25713;-35.352;149.036;2022-11-24T11:49:56;16.00;92.70
40023;DHT22;25713;-35.352;149.036;2022-11-24T11:52:46;16.00;93.10
40023;DHT22;25713;-35.352;149.036;2022-11-24T11:55:32;16.00;93.30
40023;DHT22;25713;-35.352;149.036;2022-11-24T11:58:17;16.00;93.20
40023;DHT22;25713;-35.352;149.036;2022-11-24T12:00:58;16.00;92.90
40023;DHT22;25713;-35.352;149.036;2022-11-24T12:03:43;16.00;93.40
40023;DHT22;25713;-35.352;149.036;2022-11-24T12:06:26;15.90;92.50
40023;DHT22;25713;-35.352;149.036;2022-11-24T12:09:08;15.90;92.90
40023;DHT22;25713;-35.352;149.036;2022-11-24T12:11:41;15.90;93.10
40023;DHT22;25713;-35.352;149.036;2022-11-24T12:14:24;15.90;92.50
40023;DHT22;25713;-35.352;149.036;2022-11-24T12:17:03;15.80;92.70
40023;DHT22;25713;-35.352;149.036;2022-11-24T12:19:59;15.80;92.70
40023;DHT22;25713;-35.352;149.036;2022-11-24T12:22:38;15.80;91.90
40023;DHT22;25713;-35.352;149.036;2022-11-24T12:25:24;15.80;92.30
40023;DHT22;25713;-35.352;149.036;2022-11-24T12:28:07;15.70;92.40
40023;DHT22;25713;-35.352;149.036;2022-11-24T12:30:45;15.70;92.20
40023;DHT22;25713;-35.352;149.036;2022-11-24T12:36:40;15.80;92.90
40023;DHT22;25713;-35.352;149.036;2022-11-24T12:39:23;15.80;93.30
40023;DHT22;25713;-35.352;149.036;2022-11-24T12:42:05;15.90;93.60
40023;DHT22;25713;-35.352;149.036;2022-11-24T12:44:59;15.80;93.90
40023;DHT22;25713;-35.352;149.036;2022-11-24T12:47:39;15.90;94.10
40023;DHT22;25713;-35.352;149.036;2022-11-24T12:50:15;15.90;93.60
40023;DHT22;25713;-35.352;149.036;2022-11-24T12:52:49;15.90;94.00
40023;DHT22;25713;-35.352;149.036;2022-11-24T12:55:21;15.90;94.10
40023;DHT22;25713;-35.352;149.036;2022-11-24T12:57:57;15.90;94.10
40023;DHT22;25713;-35.352;149.036;2022-11-24T13:00:33;15.90;94.20
40023;DHT22;25713;-35.352;149.036;2022-11-24T13:03:22;15.90;94.20
40023;DHT22;25713;-35.352;149.036;2022-11-24T13:06:00;15.90;94.00
40023;DHT22;25713;-35.352;149.036;2022-11-24T13:08:31;15.80;93.30
40023;DHT22;25713;-35.352;149.036;2022-11-24T13:13:59;15.70;94.10
40023;DHT22;25713;-35.352;149.036;2022-11-24T13:16:29;15.80;94.60
40023;DHT22;25713;-35.352;149.036;2022-11-24T13:18:59;15.80;95.20
40023;DHT22;25713;-35.352;149.036;2022-11-24T13:24:35;15.80;95.30
40023;DHT22;25713;-35.352;149.036;2022-11-24T13:27:30;15.80;95.40
40023;DHT22;25713;-35.352;149.036;2022-11-24T13:33:33;15.90;95.70
40023;DHT22;25713;-35.352;149.036;2022-11-24T13:36:30;15.90;95.80
40023;DHT22;25713;-35.352;149.036;2022-11-24T13:39:03;15.90;95.90
40023;DHT22;25713;-35.352;149.036;2022-11-24T13:44:52;15.90;95.80
40023;DHT22;25713;-35.352;149.036;2022-11-24T13:47:33;15.90;95.80
40023;DHT22;25713;-35.352;149.036;2022-11-24T13:50:06;15.90;95.70
40023;DHT22;25713;-35.352;149.036;2022-11-24T13:52:43;15.80;95.80
40023;DHT22;25713;-35.352;149.036;2022-11-24T13:55:36;15.80;95.80
40023;DHT22;25713;-35.352;149.036;2022-11-24T13:58:29;15.80;95.90
40023;DHT22;25713;-35.352;149.036;2022-11-24T14:01:02;15.80;96.00
40023;DHT22;25713;-35.352;149.036;2022-11-24T14:03:35;15.80;96.00
40023;DHT22;25713;-35.352;149.036;2022-11-24T14:06:15;15.80;96.00
40023;DHT22;25713;-35.352;149.036;2022-11-24T14:08:46;15.80;96.00
40023;DHT22;25713;-35.352;149.036;2022-11-24T14:11:19;15.80;96.10
40023;DHT22;25713;-35.352;149.036;2022-11-24T14:13:52;15.80;95.90
40023;DHT22;25713;-35.352;149.036;2022-11-24T14:16:22;15.70;96.00
40023;DHT22;25713;-35.352;149.036;2022-11-24T14:18:52;15.70;96.10
40023;DHT22;25713;-35.352;149.036;2022-11-24T14:21:27;15.70;96.10
40023;DHT22;25713;-35.352;149.036;2022-11-24T14:23:59;15.70;96.20
40023;DHT22;25713;-35.352;149.036;2022-11-24T14:26:33;15.70;95.90
40023;DHT22;25713;-35.352;149.036;2022-11-24T14:29:05;15.60;96.30
40023;DHT22;25713;-35.352;149.036;2022-11-24T14:31:35;15.60;96.40
40023;DHT22;25713;-35.352;149.036;2022-11-24T14:34:16;15.60;96.40
40023;DHT22;25713;-35.352;149.036;2022-11-24T14:36:46;15.60;96.30
40023;DHT22;25713;-35.352;149.036;2022-11-24T14:39:16;15.70;96.30
40023;DHT22;25713;-35.352;149.036;2022-11-24T14:41:54;15.60;96.20
40023;DHT22;25713;-35.352;149.036;2022-11-24T14:44:27;15.70;96.40
40023;DHT22;25713;-35.352;149.036;2022-11-24T14:47:05;15.70;96.60
40023;DHT22;25713;-35.352;149.036;2022-11-24T14:49:40;15.60;96.70
40023;DHT22;25713;-35.352;149.036;2022-11-24T15:53:43;15.20;97.10
40023;DHT22;25713;-35.352;149.036;2022-11-24T15:56:17;15.20;97.30
40023;DHT22;25713;-35.352;149.036;2022-11-24T15:58:48;15.20;97.40
40023;DHT22;25713;-35.352;149.036;2022-11-24T16:01:17;15.20;97.40
40023;DHT22;25713;-35.352;149.036;2022-11-24T16:03:48;15.20;97.20
40023;DHT22;25713;-35.352;149.036;2022-11-24T16:06:19;15.20;97.00
40023;DHT22;25713;-35.352;149.036;2022-11-24T16:08:51;15.20;97.00
40023;DHT22;25713;-35.352;149.036;2022-11-24T16:11:21;15.20;97.00
40023;DHT22;25713;-35.352;149.036;2022-11-24T16:13:51;15.20;97.00
40023;DHT22;25713;-35.352;149.036;2022-11-24T16:16:21;15.30;97.00
40023;DHT22;25713;-35.352;149.036;2022-11-24T16:18:50;15.30;96.90
40023;DHT22;25713;-35.352;149.036;2022-11-24T16:21:20;15.30;97.00
40023;DHT22;25713;-35.352;149.036;2022-11-24T16:23:52;15.30;97.10
40023;DHT22;25713;-35.352;149.036;2022-11-24T16:26:21;15.30;97.10
40023;DHT22;25713;-35.352;149.036;2022-11-24T16:28:54;15.30;97.00
40023;DHT22;25713;-35.352;149.036;2022-11-24T16:31:24;15.30;97.00
40023;DHT22;25713;-35.352;149.036;2022-11-24T16:33:53;15.30;96.90
40023;DHT22;25713;-35.352;149.036;2022-11-24T16:36:22;15.30;97.10